Time;durP1;ratioP1;P1;durP2;ratioP2;P2;SDS_P1;SDS_P2;PMS_P1;PMS_P2;Temp;Humidity;BMP_temperature;BMP_pressure;BME280_temperature;BME280_humidity;BME280_pressure;Samples;Min_cycle;Max_cycle;Signal;HPM_P1;HPM_P2
2024/04/12 15:52:16;;;;;;;8.27;6.90;;;;;;;;;;5422114;26;20249;-77
2024/04/12 15:54:50;;;;;;;8.70;6.63;;;;;;;;;;5423136;26;20271;-77
2024/04/12 16:11:05;;;;;;;8.35;6.32;;;;;;;;;;5443315;26;20260;-76
2024/04/12 16:13:30;;;;;;;7.28;6.43;;;;;;;;;;5454878;26;20327;-76
2024/04/12 16:16:01;;;;;;;7.45;6.40;;;;;;;;;;5444610;26;20762;-76
2024/04/12 16:18:28;;;;;;;8.10;6.45;;;;;;;;;;5440781;26;20291;-76
2024/04/12 16:20:54;;;;;;;8.27;6.82;;;;;;;;;;5404628;26;20335;-77
2024/04/12 16:23:20;;;;;;;7.75;6.90;;;;;;;;;;5418884;26;20372;-77
2024/04/12 16:25:46;;;;;;;10.43;6.93;;;;;;;;;;5391978;26;20243;-76
2024/04/12 16:28:12;;;;;;;7.03;6.32;;;;;;;;;;5424840;26;20296;-77
2024/04/12 16:30:42;;;;;;;7.82;6.45;;;;;;;;;;5431946;26;20251;-78
2024/04/12 16:33:12;;;;;;;9.05;7.13;;;;;;;;;;5448363;26;20292;-77
2024/04/12 16:35:39;;;;;;;9.43;6.90;;;;;;;;;;5426023;26;20263;-75
2024/04/12 16:38:05;;;;;;;7.10;6.30;;;;;;;;;;5411083;26;20255;-76
2024/04/12 16:40:31;;;;;;;7.97;5.97;;;;;;;;;;5410101;26;20336;-76
2024/04/12 16:42:58;;;;;;;6.95;6.25;;;;;;;;;;5422463;26;20313;-77
2024/04/12 16:45:24;;;;;;;7.93;6.85;;;;;;;;;;5442833;26;20324;-76
2024/04/12 16:47:50;;;;;;;7.35;6.30;;;;;;;;;;5443089;26;20259;-77
2024/04/12 16:50:17;;;;;;;8.93;6.65;;;;;;;;;;5423632;26;20294;-77
2024/04/12 16:52:49;;;;;;;8.15;6.07;;;;;;;;;;5433538;26;20284;-78
2024/04/12 16:55:18;;;;;;;10.93;5.90;;;;;;;;;;5428058;26;20306;-77
2024/04/12 16:57:44;;;;;;;8.38;6.15;;;;;;;;;;5454430;26;20317;-78
2024/04/12 17:00:14;;;;;;;9.23;6.03;;;;;;;;;;5402771;26;20267;-77
2024/04/12 17:02:42;;;;;;;9.60;6.25;;;;;;;;;;5426499;26;20263;-77
2024/04/12 17:05:08;;;;;;;6.20;5.60;;;;;;;;;;5422145;26;20292;-78
2024/04/12 17:07:34;;;;;;;6.75;5.88;;;;;;;;;;5423293;26;20257;-76
2024/04/12 17:10:04;;;;;;;6.80;6.10;;;;;;;;;;5423110;26;20738;-76
2024/04/12 17:12:33;;;;;;;7.85;6.15;;;;;;;;;;5339223;21;20274;-88
2024/04/12 17:14:59;;;;;;;10.15;6.25;;;;;;;;;;5185456;27;20263;-86
2024/04/12 17:17:24;;;;;;;7.63;6.07;;;;;;;;;;5255712;27;20348;-86
2024/04/12 17:19:52;;;;;;;8.00;6.40;;;;;;;;;;5258642;27;20265;-87
2024/04/12 17:22:18;;;;;;;7.75;6.30;;;;;;;;;;5167928;27;20358;-86
2024/04/12 17:24:47;;;;;;;7.85;5.88;;;;;;;;;;5209713;27;20309;-86
2024/04/12 17:27:13;;;;;;;8.88;6.30;;;;;;;;;;5184873;27;20259;-88
2024/04/12 17:29:41;;;;;;;9.82;6.32;;;;;;;;;;5203969;27;20308;-87
2024/04/12 17:32:07;;;;;;;9.73;7.18;;;;;;;;;;5230542;27;20255;-87
2024/04/12 17:34:32;;;;;;;9.77;7.15;;;;;;;;;;5200820;27;20720;-86
2024/04/12 17:36:58;;;;;;;8.40;6.80;;;;;;;;;;5158514;27;20259;-87
2024/04/12 17:39:24;;;;;;;10.95;7.88;;;;;;;;;;5186394;27;20301;-86
2024/04/12 17:41:50;;;;;;;10.68;7.63;;;;;;;;;;5206849;27;20303;-85
2024/04/12 17:44:16;;;;;;;9.52;6.57;;;;;;;;;;5186085;27;20308;-86
2024/04/12 17:46:42;;;;;;;9.30;6.75;;;;;;;;;;5252208;27;20252;-87
2024/04/12 17:49:09;;;;;;;8.25;7.28;;;;;;;;;;5196635;27;20259;-86
2024/04/12 17:51:35;;;;;;;9.48;6.97;;;;;;;;;;5208655;27;20381;-86
2024/04/12 17:54:02;;;;;;;7.53;6.45;;;;;;;;;;5174285;27;20256;-86
2024/04/12 17:56:30;;;;;;;8.52;6.72;;;;;;;;;;5233619;27;20258;-85
2024/04/12 17:58:56;;;;;;;8.45;6.82;;;;;;;;;;5186315;27;20258;-87
2024/04/12 18:01:23;;;;;;;7.50;6.70;;;;;;;;;;5207126;27;20263;-87
2024/04/12 18:03:49;;;;;;;8.98;7.10;;;;;;;;;;5218010;27;20258;-86
2024/04/12 18:06:15;;;;;;;7.43;6.35;;;;;;;;;;5188752;27;20733;-86
2024/04/12 18:08:43;;;;;;;9.63;7.40;;;;;;;;;;5241859;27;20258;-87
2024/04/12 18:11:12;;;;;;;11.63;7.22;;;;;;;;;;5220482;27;20308;-86
2024/04/12 18:13:38;;;;;;;9.75;7.65;;;;;;;;;;5200223;27;20326;-86
2024/04/12 18:16:07;;;;;;;9.25;7.53;;;;;;;;;;5233293;27;20246;-86
2024/04/12 18:18:32;;;;;;;10.88;7.57;;;;;;;;;;5259194;27;20655;-86
2024/04/12 18:21:05;;;;;;;8.48;7.30;;;;;;;;;;5183307;27;20302;-86
2024/04/12 18:23:35;;;;;;;11.05;8.00;;;;;;;;;;5206373;27;20267;-87
2024/04/12 18:26:00;;;;;;;8.70;7.80;;;;;;;;;;5196053;27;20294;-86
2024/04/12 18:28:28;;;;;;;7.95;6.88;;;;;;;;;;5242569;27;20270;-86
2024/04/12 18:30:59;;;;;;;7.32;6.60;;;;;;;;;;5240246;27;20268;-86
2024/04/12 18:33:24;;;;;;;7.47;6.20;;;;;;;;;;5154243;27;20675;-86
2024/04/12 18:36:01;;;;;;;7.72;6.20;;;;;;;;;;5203722;27;20267;-88
2024/04/12 18:47:06;;;;;;;9.05;6.18;;;;;;;;;;5122588;27;20420;-87
2024/04/12 18:49:32;;;;;;;8.00;5.63;;;;;;;;;;5181007;27;20264;-87
2024/04/12 18:51:57;;;;;;;10.00;8.27;;;;;;;;;;5234424;27;20378;-85
2024/04/12 18:54:23;;;;;;;8.15;6.60;;;;;;;;;;5207157;27;20275;-87
2024/04/12 18:56:49;;;;;;;7.30;5.63;;;;;;;;;;5181724;27;20295;-86
2024/04/12 18:59:14;;;;;;;6.45;5.28;;;;;;;;;;5184797;27;20354;-86
2024/04/12 19:01:46;;;;;;;7.78;5.25;;;;;;;;;;5235472;27;20290;-87
2024/04/12 19:04:15;;;;;;;5.72;4.88;;;;;;;;;;5213585;27;20259;-86
2024/04/12 19:06:41;;;;;;;9.35;5.20;;;;;;;;;;5211577;27;20267;-87
2024/04/12 19:09:07;;;;;;;7.53;5.68;;;;;;;;;;5212190;27;20259;-86
2024/04/12 19:11:34;;;;;;;6.90;4.88;;;;;;;;;;5213588;27;20295;-86
2024/04/12 19:14:00;;;;;;;7.05;5.40;;;;;;;;;;5211797;27;20259;-85
2024/04/12 19:16:26;;;;;;;6.40;5.80;;;;;;;;;;5212450;27;20497;-86
2024/04/12 19:18:53;;;;;;;8.57;5.43;;;;;;;;;;5222593;27;20255;-85
2024/04/12 19:21:18;;;;;;;8.10;5.63;;;;;;;;;;5219526;27;20349;-86
2024/04/12 19:23:44;;;;;;;6.10;5.47;;;;;;;;;;5243906;27;20271;-86
2024/04/12 19:26:10;;;;;;;7.88;5.85;;;;;;;;;;5216200;27;20281;-86
2024/04/12 19:28:36;;;;;;;8.05;6.10;;;;;;;;;;5214549;27;20289;-87
2024/04/12 19:31:06;;;;;;;10.57;7.50;;;;;;;;;;5188014;27;20263;-86
2024/04/12 19:33:34;;;;;;;9.65;7.25;;;;;;;;;;5242663;27;20303;-86
2024/04/12 19:36:03;;;;;;;10.07;8.30;;;;;;;;;;5214558;27;20259;-86
2024/04/12 19:38:29;;;;;;;8.88;7.55;;;;;;;;;;5192665;27;20262;-85
2024/04/12 19:41:03;;;;;;;8.40;7.35;;;;;;;;;;5191280;27;20255;-85
2024/04/12 19:43:29;;;;;;;11.15;7.10;;;;;;;;;;5217778;27;20289;-88
2024/04/12 19:45:57;;;;;;;8.77;7.00;;;;;;;;;;5209221;27;20255;-86
2024/04/12 19:48:29;;;;;;;9.38;6.53;;;;;;;;;;5198048;27;20247;-88
2024/04/12 19:50:59;;;;;;;6.32;5.72;;;;;;;;;;5221765;27;20301;-86
2024/04/12 19:53:26;;;;;;;7.65;5.85;;;;;;;;;;5201267;27;20268;-86
2024/04/12 19:55:59;;;;;;;7.57;5.15;;;;;;;;;;5218982;27;20255;-86
2024/04/12 19:58:25;;;;;;;7.13;5.45;;;;;;;;;;5182906;27;20289;-88
2024/04/12 20:00:51;;;;;;;7.63;5.47;;;;;;;;;;5183948;27;20263;-88
2024/04/12 20:03:17;;;;;;;7.43;5.80;;;;;;;;;;5183400;27;20371;-87
2024/04/12 20:05:47;;;;;;;6.25;5.57;;;;;;;;;;5185253;27;20259;-86
2024/04/12 20:08:12;;;;;;;8.70;5.90;;;;;;;;;;5239943;27;20314;-87
2024/04/12 20:10:38;;;;;;;8.20;4.90;;;;;;;;;;5185699;27;20274;-87
2024/04/12 20:13:06;;;;;;;6.45;5.32;;;;;;;;;;5185201;27;20334;-86
2024/04/12 20:15:31;;;;;;;6.18;5.55;;;;;;;;;;5186023;27;20331;-87
2024/04/12 20:17:57;;;;;;;5.70;4.95;;;;;;;;;;5186441;27;20274;-87
2024/04/12 20:20:22;;;;;;;5.60;5.00;;;;;;;;;;5185374;27;20258;-88
2024/04/12 20:22:49;;;;;;;6.78;5.28;;;;;;;;;;5184288;27;20260;-87
2024/04/12 20:25:15;;;;;;;8.80;5.25;;;;;;;;;;5213393;27;20432;-86
2024/04/12 20:27:44;;;;;;;5.40;4.90;;;;;;;;;;5213897;27;20344;-87
2024/04/12 20:30:29;;;;;;;6.35;4.88;;;;;;;;;;5187979;27;20271;-87
2024/04/12 20:33:03;;;;;;;7.70;5.15;;;;;;;;;;5190352;27;20636;-86
2024/04/12 20:35:39;;;;;;;7.68;5.55;;;;;;;;;;5163102;27;20258;-86
2024/04/12 20:38:04;;;;;;;7.55;5.68;;;;;;;;;;5191488;27;20309;-86
2024/04/12 20:40:37;;;;;;;7.38;5.53;;;;;;;;;;5189346;27;20263;-87
2024/04/12 20:43:03;;;;;;;6.28;4.88;;;;;;;;;;5215495;27;20258;-87
2024/04/12 20:45:28;;;;;;;7.60;5.53;;;;;;;;;;5159999;27;20259;-87
2024/04/12 20:47:56;;;;;;;6.13;5.13;;;;;;;;;;5191806;27;20323;-86
2024/04/12 20:50:22;;;;;;;5.15;4.65;;;;;;;;;;5206010;27;20301;-87
2024/04/12 20:52:52;;;;;;;6.97;5.18;;;;;;;;;;5206745;27;20322;-86
2024/04/12 20:55:18;;;;;;;6.80;5.07;;;;;;;;;;5198045;27;20267;-86
2024/04/12 20:57:43;;;;;;;6.50;5.53;;;;;;;;;;5164865;27;20267;-86
2024/04/12 21:00:13;;;;;;;6.43;5.43;;;;;;;;;;5186209;27;20263;-87
2024/04/12 21:02:39;;;;;;;8.10;5.30;;;;;;;;;;5218296;27;20298;-86
2024/04/12 21:05:07;;;;;;;6.40;5.50;;;;;;;;;;5216824;27;20267;-86
2024/04/12 21:07:38;;;;;;;6.90;5.45;;;;;;;;;;5189675;27;20259;-86
2024/04/12 21:10:04;;;;;;;7.07;5.65;;;;;;;;;;5191245;27;20267;-85
2024/04/12 21:12:30;;;;;;;8.73;5.90;;;;;;;;;;5189163;27;20302;-85
2024/04/12 21:14:55;;;;;;;6.47;5.80;;;;;;;;;;5197219;27;20263;-86
2024/04/12 21:17:21;;;;;;;7.03;5.75;;;;;;;;;;5214582;27;20306;-86
2024/04/12 21:19:46;;;;;;;7.87;6.20;;;;;;;;;;5188351;27;20301;-87
2024/04/12 21:22:14;;;;;;;8.00;6.30;;;;;;;;;;5188587;27;20339;-86
2024/04/12 21:24:40;;;;;;;8.38;6.72;;;;;;;;;;5187311;27;20285;-86
2024/04/12 21:27:05;;;;;;;7.70;6.55;;;;;;;;;;5189317;27;20271;-87
2024/04/12 21:29:33;;;;;;;6.70;5.97;;;;;;;;;;5188520;27;20263;-87
2024/04/12 21:32:01;;;;;;;8.95;6.18;;;;;;;;;;5189916;27;20407;-86
2024/04/12 21:34:27;;;;;;;6.78;6.18;;;;;;;;;;5204644;27;20292;-87
2024/04/12 21:36:54;;;;;;;6.43;5.82;;;;;;;;;;5233571;27;20282;-86
2024/04/12 21:39:20;;;;;;;6.95;6.25;;;;;;;;;;5205557;27;20512;-86
2024/04/12 21:41:46;;;;;;;7.00;6.30;;;;;;;;;;5205697;27;20255;-86
2024/04/12 21:44:14;;;;;;;8.90;5.60;;;;;;;;;;5204829;27;20282;-87
2024/04/12 21:46:39;;;;;;;8.83;5.57;;;;;;;;;;5227012;27;20267;-86
2024/04/12 21:49:07;;;;;;;7.28;5.40;;;;;;;;;;5191514;27;20378;-85
2024/04/12 21:51:33;;;;;;;7.32;5.90;;;;;;;;;;5186571;27;20263;-85
2024/04/12 21:54:00;;;;;;;6.82;5.68;;;;;;;;;;5187163;27;20263;-85
2024/04/12 21:56:25;;;;;;;8.20;5.78;;;;;;;;;;5214352;27;20305;-86
2024/04/12 21:58:51;;;;;;;9.48;5.68;;;;;;;;;;5214234;27;20263;-87
2024/04/12 22:01:16;;;;;;;6.07;5.43;;;;;;;;;;5186095;27;20264;-86
2024/04/12 22:03:44;;;;;;;6.93;5.38;;;;;;;;;;5160345;27;20297;-86
2024/04/12 22:06:12;;;;;;;7.72;5.10;;;;;;;;;;5214992;27;20263;-87
2024/04/12 22:08:40;;;;;;;7.72;5.20;;;;;;;;;;5188260;27;20307;-86
2024/04/12 22:11:11;;;;;;;8.07;5.97;;;;;;;;;;5188283;27;20263;-87
2024/04/12 22:13:43;;;;;;;6.87;5.40;;;;;;;;;;5188730;27;20271;-87
2024/04/12 22:16:12;;;;;;;7.33;5.67;;;;;;;;;;5186829;27;20375;-86
2024/04/12 22:18:38;;;;;;;8.82;5.95;;;;;;;;;;5214919;27;20259;-86
2024/04/12 22:21:04;;;;;;;8.07;5.70;;;;;;;;;;5186750;27;20764;-86
2024/04/12 22:23:35;;;;;;;7.77;5.47;;;;;;;;;;5186980;27;20584;-87
2024/04/12 22:26:16;;;;;;;7.37;5.37;;;;;;;;;;5213660;27;20737;-87
2024/04/12 22:28:45;;;;;;;6.77;5.40;;;;;;;;;;5188596;27;20263;-87
2024/04/12 22:31:15;;;;;;;6.53;5.23;;;;;;;;;;5186724;27;20267;-88
2024/04/12 22:33:48;;;;;;;6.53;5.37;;;;;;;;;;5213695;27;20267;-86
2024/04/12 22:36:14;;;;;;;8.27;5.53;;;;;;;;;;5186692;27;20343;-87
2024/04/12 22:38:40;;;;;;;6.77;5.20;;;;;;;;;;5187088;27;20292;-86
2024/04/12 22:41:06;;;;;;;8.10;5.10;;;;;;;;;;5212299;27;20263;-87
2024/04/12 22:43:37;;;;;;;9.13;5.53;;;;;;;;;;5163732;27;20287;-87
2024/04/12 22:46:05;;;;;;;7.27;5.17;;;;;;;;;;5192114;27;20596;-88
2024/04/12 22:48:31;;;;;;;10.67;5.07;;;;;;;;;;5246695;27;20788;-88
2024/04/12 22:50:59;;;;;;;7.17;4.67;;;;;;;;;;5219162;27;20312;-88
2024/04/12 22:53:27;;;;;;;6.33;4.00;;;;;;;;;;5245617;27;20755;-87
2024/04/12 22:55:52;;;;;;;5.83;3.73;;;;;;;;;;5193218;27;20263;-87
2024/04/12 22:58:18;;;;;;;6.23;3.53;;;;;;;;;;5216202;27;20285;-87
2024/04/12 23:00:44;;;;;;;6.10;3.90;;;;;;;;;;5195381;27;20318;-87
2024/04/12 23:03:09;;;;;;;5.57;4.07;;;;;;;;;;5187152;27;20350;-86
2024/04/12 23:05:35;;;;;;;4.03;3.60;;;;;;;;;;5219410;27;20257;-87
2024/04/12 23:08:00;;;;;;;7.30;3.80;;;;;;;;;;5193598;27;20263;-87
2024/04/12 23:10:27;;;;;;;4.20;3.67;;;;;;;;;;5246757;27;20325;-86
2024/04/12 23:12:52;;;;;;;4.93;3.70;;;;;;;;;;5248603;27;20344;-86
2024/04/12 23:15:18;;;;;;;5.27;3.57;;;;;;;;;;5220400;27;20277;-88
2024/04/12 23:17:43;;;;;;;6.47;3.50;;;;;;;;;;5197815;27;20279;-87
2024/04/12 23:20:12;;;;;;;5.67;3.40;;;;;;;;;;5188368;27;20275;-87
2024/04/12 23:22:37;;;;;;;4.50;3.50;;;;;;;;;;5172513;27;20290;-86
2024/04/12 23:25:04;;;;;;;5.93;3.40;;;;;;;;;;5213793;27;20259;-86
2024/04/12 23:27:29;;;;;;;4.63;3.60;;;;;;;;;;5172132;27;20326;-86
2024/04/12 23:29:55;;;;;;;4.17;3.20;;;;;;;;;;5187560;27;20279;-87
2024/04/12 23:32:23;;;;;;;4.07;3.20;;;;;;;;;;5190970;27;20275;-86
2024/04/12 23:34:53;;;;;;;4.67;3.20;;;;;;;;;;5169755;27;20305;-86
2024/04/12 23:37:19;;;;;;;3.80;3.40;;;;;;;;;;5191068;27;20274;-86
2024/04/12 23:39:44;;;;;;;5.30;3.10;;;;;;;;;;5220000;27;20263;-87
2024/04/12 23:42:14;;;;;;;4.33;3.17;;;;;;;;;;5164314;27;20926;-88
2024/04/12 23:44:42;;;;;;;5.80;3.27;;;;;;;;;;5193508;27;20325;-87
2024/04/12 23:47:10;;;;;;;4.43;3.30;;;;;;;;;;5193368;27;20290;-86
2024/04/12 23:49:36;;;;;;;4.57;3.53;;;;;;;;;;5200085;27;20267;-87
2024/04/12 23:52:02;;;;;;;6.40;3.50;;;;;;;;;;5188723;27;20289;-87
2024/04/12 23:54:30;;;;;;;4.87;3.00;;;;;;;;;;5192776;27;20287;-86
2024/04/12 23:56:55;;;;;;;6.00;3.30;;;;;;;;;;5222543;27;20349;-86
2024/04/12 23:59:22;;;;;;;4.73;3.10;;;;;;;;;;5168156;27;20294;-85
